Time;durP1;ratioP1;P1;durP2;ratioP2;P2;SDS_P1;SDS_P2;PMS_P1;PMS_P2;Temp;Humidity;BMP_temperature;BMP_pressure;BME280_temperature;BME280_humidity;BME280_pressure;Samples;Min_cycle;Max_cycle;Signal;HPM_P1;HPM_P2
2021/10/06 00:01:42;;;;;;;5.37;1.87;;;12.60;91.40;;;;;;5018112;28;20268;-90
2021/10/06 00:04:08;;;;;;;4.13;1.80;;;12.60;91.90;;;;;;5051813;28;20273;-90
2021/10/06 00:06:34;;;;;;;5.80;1.93;;;12.60;91.70;;;;;;5037891;28;20186;-90
2021/10/06 00:09:00;;;;;;;4.23;1.87;;;12.70;91.50;;;;;;5058426;28;20223;-89
2021/10/06 00:11:26;;;;;;;2.73;1.73;;;12.60;91.50;;;;;;5037932;28;20217;-90
2021/10/06 00:13:52;;;;;;;5.23;2.13;;;12.60;91.60;;;;;;5051913;28;20191;-90
2021/10/06 00:16:19;;;;;;;2.43;1.67;;;12.70;91.70;;;;;;5053865;28;20187;-90
2021/10/06 00:18:45;;;;;;;3.33;2.10;;;12.70;91.30;;;;;;5036745;28;20970;-89
2021/10/06 00:21:12;;;;;;;3.80;2.27;;;12.80;90.60;;;;;;5054796;28;20273;-89
2021/10/06 00:23:37;;;;;;;2.60;1.83;;;12.90;90.20;;;;;;5055456;28;20191;-89
2021/10/06 00:26:04;;;;;;;3.87;1.80;;;13.00;90.60;;;;;;5052222;28;20732;-90
2021/10/06 00:28:30;;;;;;;2.40;1.83;;;12.80;91.00;;;;;;5048888;28;20691;-90
2021/10/06 00:30:57;;;;;;;5.23;2.20;;;12.80;90.90;;;;;;5032257;28;20280;-90
2021/10/06 00:33:26;;;;;;;2.70;1.90;;;12.80;91.90;;;;;;5052852;28;20205;-89
2021/10/06 00:35:53;;;;;;;2.53;1.70;;;12.80;91.90;;;;;;5053555;28;20275;-90
2021/10/06 00:38:21;;;;;;;3.73;1.93;;;12.80;92.00;;;;;;5036759;28;20289;-89
2021/10/06 00:40:47;;;;;;;4.87;2.53;;;12.70;92.20;;;;;;5051881;28;20335;-90
2021/10/06 00:43:13;;;;;;;3.13;1.77;;;12.70;92.40;;;;;;5061617;28;20201;-89
2021/10/06 00:45:39;;;;;;;3.60;1.97;;;12.80;92.10;;;;;;5057757;28;20191;-89
2021/10/06 00:48:05;;;;;;;2.23;1.77;;;12.80;91.50;;;;;;5073217;28;20191;-90
2021/10/06 00:50:31;;;;;;;3.57;1.87;;;12.80;91.10;;;;;;5077638;28;20198;-89
2021/10/06 00:52:57;;;;;;;2.73;1.97;;;12.90;91.30;;;;;;5060042;28;20210;-88
2021/10/06 00:55:22;;;;;;;4.13;1.90;;;12.90;91.20;;;;;;5075365;28;20236;-89
2021/10/06 00:57:48;;;;;;;4.20;2.00;;;13.00;90.40;;;;;;5058550;28;20269;-89
2021/10/06 01:00:14;;;;;;;4.57;1.90;;;12.90;90.40;;;;;;5059153;28;20814;-89
2021/10/06 01:02:40;;;;;;;3.13;2.00;;;12.90;90.20;;;;;;5037383;28;20221;-90
2021/10/06 01:05:08;;;;;;;2.70;2.03;;;13.00;89.30;;;;;;5053389;28;20196;-90
2021/10/06 01:07:34;;;;;;;2.57;1.70;;;13.00;89.70;;;;;;5038142;28;20261;-89
2021/10/06 01:10:03;;;;;;;2.83;1.90;;;13.00;88.80;;;;;;5054268;28;20199;-90
2021/10/06 01:12:28;;;;;;;3.83;1.90;;;13.00;88.80;;;;;;5070058;28;20199;-89
2021/10/06 01:14:55;;;;;;;2.73;1.87;;;13.00;89.30;;;;;;5071900;28;20207;-89
2021/10/06 01:17:21;;;;;;;5.13;2.00;;;13.00;89.30;;;;;;5062295;28;20210;-89
2021/10/06 01:19:46;;;;;;;2.20;1.83;;;12.90;89.70;;;;;;5047871;28;20231;-90
2021/10/06 01:22:15;;;;;;;4.37;1.80;;;12.90;89.60;;;;;;5033096;28;20219;-90
2021/10/06 01:24:41;;;;;;;3.60;1.77;;;13.00;88.70;;;;;;5052510;28;20213;-90
2021/10/06 01:27:06;;;;;;;5.67;2.20;;;12.90;89.20;;;;;;5051578;28;20249;-90
2021/10/06 01:29:33;;;;;;;2.43;1.90;;;12.80;89.70;;;;;;5049513;28;20203;-89
2021/10/06 01:31:58;;;;;;;4.33;1.70;;;12.90;89.60;;;;;;5050574;28;20229;-90
2021/10/06 01:34:25;;;;;;;5.13;1.80;;;12.70;89.20;;;;;;5029861;28;20673;-90
2021/10/06 01:36:53;;;;;;;3.53;1.90;;;12.80;89.00;;;;;;5038436;28;20199;-90
2021/10/06 01:39:21;;;;;;;2.60;1.93;;;12.90;87.80;;;;;;5020715;28;20217;-89
2021/10/06 01:41:47;;;;;;;2.10;1.63;;;12.90;88.50;;;;;;5050321;28;20914;-89
2021/10/06 01:44:15;;;;;;;2.80;2.00;;;12.90;89.10;;;;;;5037719;28;20606;-90
2021/10/06 01:46:41;;;;;;;1.97;1.80;;;12.80;89.30;;;;;;5047760;28;20225;-89
2021/10/06 01:49:07;;;;;;;2.20;1.80;;;12.70;89.60;;;;;;5050509;28;20205;-90
2021/10/06 01:51:32;;;;;;;2.77;1.80;;;12.80;89.50;;;;;;5048072;28;20218;-90
2021/10/06 01:53:58;;;;;;;2.60;1.80;;;12.90;89.10;;;;;;5046525;28;20243;-90
2021/10/06 01:56:24;;;;;;;3.30;1.80;;;12.80;89.00;;;;;;5029362;28;20206;-90
2021/10/06 01:58:50;;;;;;;2.37;1.83;;;12.90;89.00;;;;;;5049649;28;20207;-90
2021/10/06 02:01:16;;;;;;;1.70;1.60;;;12.90;89.30;;;;;;5045157;28;20221;-90
2021/10/06 02:03:42;;;;;;;3.53;1.90;;;12.80;90.00;;;;;;5028076;28;20277;-90
2021/10/06 02:06:08;;;;;;;2.03;1.80;;;12.80;89.40;;;;;;5049436;28;20202;-89
2021/10/06 02:08:34;;;;;;;3.07;1.70;;;12.80;90.20;;;;;;5042758;28;20202;-90
2021/10/06 02:10:59;;;;;;;4.07;2.20;;;12.80;90.30;;;;;;5031957;28;20219;-89
2021/10/06 02:13:25;;;;;;;4.90;2.40;;;12.70;90.00;;;;;;5034018;28;20188;-89
2021/10/06 02:15:52;;;;;;;2.93;1.90;;;12.70;90.60;;;;;;5050703;28;20895;-90
2021/10/06 02:18:17;;;;;;;3.50;2.07;;;12.60;90.80;;;;;;5046799;28;20385;-89
2021/10/06 02:20:43;;;;;;;2.57;1.90;;;12.60;91.00;;;;;;5047826;28;20928;-89
2021/10/06 02:23:09;;;;;;;2.20;1.97;;;12.50;91.40;;;;;;5050292;28;20694;-90
2021/10/06 02:25:35;;;;;;;3.47;1.70;;;12.60;90.90;;;;;;5047937;28;20191;-89
2021/10/06 02:28:01;;;;;;;3.80;2.17;;;12.60;90.50;;;;;;5047794;28;20292;-90
2021/10/06 02:30:27;;;;;;;3.83;1.90;;;12.60;90.70;;;;;;5049091;28;20195;-90
2021/10/06 02:32:53;;;;;;;2.00;1.80;;;12.60;90.50;;;;;;5046305;28;20729;-89
2021/10/06 02:35:18;;;;;;;3.63;1.90;;;12.60;90.20;;;;;;5030947;28;20191;-89
2021/10/06 02:37:44;;;;;;;2.77;1.83;;;12.40;91.30;;;;;;5031766;28;20191;-89
2021/10/06 02:40:13;;;;;;;3.00;2.10;;;12.40;91.90;;;;;;5045706;28;20222;-90
2021/10/06 02:42:39;;;;;;;4.97;1.80;;;12.30;92.40;;;;;;5042685;28;20679;-90
2021/10/06 02:45:08;;;;;;;4.60;1.90;;;12.40;91.80;;;;;;5030504;28;20214;-89
2021/10/06 02:47:33;;;;;;;3.50;1.90;;;12.40;92.60;;;;;;5032252;28;20182;-90
2021/10/06 02:49:59;;;;;;;3.27;1.80;;;12.50;91.80;;;;;;5048032;28;20279;-89
2021/10/06 02:52:25;;;;;;;3.77;2.10;;;12.50;92.20;;;;;;5047375;28;20253;-90
2021/10/06 02:54:51;;;;;;;3.23;1.80;;;12.40;92.20;;;;;;5049130;28;20617;-89
2021/10/06 02:57:16;;;;;;;3.50;2.00;;;12.40;92.50;;;;;;5030267;28;20204;-89
2021/10/06 02:59:42;;;;;;;2.43;1.90;;;12.40;92.80;;;;;;5025940;28;20297;-90
2021/10/06 03:02:08;;;;;;;3.73;2.00;;;12.40;92.80;;;;;;5048808;28;20218;-89
2021/10/06 03:04:33;;;;;;;2.87;2.10;;;12.40;93.70;;;;;;5047846;28;20191;-89
2021/10/06 03:06:59;;;;;;;3.87;1.90;;;12.40;92.80;;;;;;5029202;28;20199;-89
2021/10/06 03:09:25;;;;;;;4.60;1.70;;;12.60;92.30;;;;;;5046644;28;20287;-89
2021/10/06 03:11:50;;;;;;;4.30;1.87;;;12.40;93.40;;;;;;5047982;28;20215;-89
2021/10/06 03:14:16;;;;;;;6.87;1.90;;;12.30;93.70;;;;;;5044732;28;20198;-90
2021/10/06 03:16:42;;;;;;;3.23;2.13;;;12.30;94.20;;;;;;5045121;28;20277;-90
2021/10/06 03:19:08;;;;;;;3.27;1.70;;;12.40;93.90;;;;;;5050280;28;20606;-89
2021/10/06 03:21:33;;;;;;;1.70;1.50;;;12.40;94.60;;;;;;5025080;28;20214;-89
2021/10/06 03:23:59;;;;;;;2.07;1.70;;;12.50;93.60;;;;;;5046004;28;20598;-90
2021/10/06 03:26:25;;;;;;;3.83;1.70;;;12.60;93.50;;;;;;5045126;28;20607;-90
2021/10/06 03:28:50;;;;;;;2.67;1.97;;;12.60;93.00;;;;;;5047755;28;20202;-90
2021/10/06 03:31:16;;;;;;;1.80;1.70;;;12.70;92.80;;;;;;5043938;28;20250;-90
2021/10/06 03:33:42;;;;;;;4.33;2.17;;;12.60;93.30;;;;;;5053335;28;20192;-90
2021/10/06 03:36:08;;;;;;;3.07;1.80;;;12.60;92.80;;;;;;5052190;28;20199;-89
2021/10/06 03:38:33;;;;;;;2.77;1.87;;;12.60;93.30;;;;;;5049136;28;20636;-90
2021/10/06 03:40:59;;;;;;;2.53;1.93;;;12.60;93.20;;;;;;5033046;28;20226;-89
2021/10/06 03:43:25;;;;;;;2.53;1.70;;;12.60;93.20;;;;;;5053508;28;20274;-90
2021/10/06 03:45:51;;;;;;;3.10;1.80;;;12.70;92.90;;;;;;5052864;28;20194;-90
2021/10/06 03:48:17;;;;;;;4.70;2.17;;;12.70;92.80;;;;;;5057181;28;20210;-89
2021/10/06 03:50:44;;;;;;;3.27;1.73;;;12.60;93.40;;;;;;5037450;28;20218;-91
2021/10/06 03:53:11;;;;;;;2.53;1.90;;;12.50;93.70;;;;;;5050580;28;20244;-90
2021/10/06 03:55:38;;;;;;;4.83;1.87;;;12.40;94.50;;;;;;5052374;28;20195;-90
2021/10/06 03:58:04;;;;;;;3.03;2.10;;;12.30;94.80;;;;;;5052609;28;20202;-89
2021/10/06 04:00:30;;;;;;;5.13;2.30;;;12.30;94.50;;;;;;5049607;28;20217;-90
2021/10/06 04:02:55;;;;;;;3.90;2.00;;;12.30;94.70;;;;;;5048581;28;20190;-88
2021/10/06 04:05:21;;;;;;;2.83;2.10;;;12.20;95.00;;;;;;5049346;28;20189;-88
2021/10/06 04:07:47;;;;;;;5.30;2.00;;;12.10;95.60;;;;;;5052333;28;20237;-89
2021/10/06 04:10:12;;;;;;;3.67;1.90;;;12.20;95.70;;;;;;5050085;28;20189;-90
2021/10/06 04:12:38;;;;;;;2.27;2.03;;;12.20;95.50;;;;;;5050405;28;20241;-90
2021/10/06 04:15:05;;;;;;;3.20;1.93;;;12.30;95.50;;;;;;5051895;28;20194;-89
2021/10/06 04:17:30;;;;;;;2.83;1.73;;;12.30;94.00;;;;;;5033403;28;20198;-89
2021/10/06 04:19:56;;;;;;;3.03;1.97;;;12.30;94.50;;;;;;5048890;28;20230;-89
2021/10/06 04:22:22;;;;;;;2.43;2.23;;;12.10;95.50;;;;;;5018398;28;20214;-89
2021/10/06 04:24:47;;;;;;;5.07;1.90;;;12.20;95.30;;;;;;5051362;28;20198;-89
2021/10/06 04:27:13;;;;;;;4.03;2.20;;;12.30;94.30;;;;;;5050552;28;20192;-90
2021/10/06 04:29:39;;;;;;;2.73;1.93;;;12.40;94.40;;;;;;5044644;28;20217;-90
2021/10/06 04:32:05;;;;;;;2.20;1.90;;;12.40;95.00;;;;;;5053441;28;20207;-91
2021/10/06 04:34:31;;;;;;;4.63;2.50;;;12.30;95.40;;;;;;5031399;28;20245;-91
2021/10/06 04:36:57;;;;;;;2.23;2.00;;;12.40;94.70;;;;;;5039690;28;20201;-90
2021/10/06 04:39:23;;;;;;;2.83;2.10;;;12.40;94.40;;;;;;5051140;28;20225;-89
2021/10/06 04:41:48;;;;;;;3.17;1.90;;;12.40;94.30;;;;;;5044285;28;20223;-90
2021/10/06 04:44:14;;;;;;;3.63;1.90;;;12.30;94.20;;;;;;5031790;28;20289;-90
2021/10/06 04:46:40;;;;;;;2.83;2.00;;;12.30;94.60;;;;;;5050215;28;20291;-90
2021/10/06 04:49:06;;;;;;;3.47;2.27;;;12.30;94.80;;;;;;5032264;28;20201;-89
2021/10/06 04:51:32;;;;;;;3.13;2.00;;;12.20;95.10;;;;;;5033451;28;20263;-89
2021/10/06 04:53:58;;;;;;;2.67;1.77;;;12.20;95.40;;;;;;5052201;28;20283;-90
2021/10/06 04:56:23;;;;;;;5.93;1.80;;;12.20;94.90;;;;;;5036403;28;20191;-90
2021/10/06 04:58:49;;;;;;;4.07;1.93;;;12.20;94.60;;;;;;5050549;28;20252;-90
2021/10/06 05:01:15;;;;;;;3.17;1.90;;;12.20;96.10;;;;;;5048304;28;20222;-89
2021/10/06 05:03:40;;;;;;;4.17;1.90;;;12.40;93.60;;;;;;5071022;28;20182;-89
2021/10/06 05:06:06;;;;;;;1.80;1.70;;;12.30;93.60;;;;;;5067493;28;20213;-89
2021/10/06 05:08:33;;;;;;;3.67;2.13;;;12.20;93.80;;;;;;5076320;28;20221;-90
2021/10/06 05:10:59;;;;;;;4.80;2.23;;;12.30;93.70;;;;;;5075625;28;20257;-89
2021/10/06 05:13:24;;;;;;;4.27;2.00;;;12.30;93.40;;;;;;5059013;28;20206;-88
2021/10/06 05:15:50;;;;;;;3.77;1.90;;;12.10;92.50;;;;;;5048975;28;20851;-89
2021/10/06 05:18:16;;;;;;;6.67;2.43;;;12.20;92.10;;;;;;5031377;28;21880;-89
2021/10/06 05:20:42;;;;;;;3.50;1.97;;;12.10;91.60;;;;;;5050508;28;20272;-89
2021/10/06 05:23:08;;;;;;;3.50;2.20;;;12.20;91.30;;;;;;5049124;28;20201;-88
2021/10/06 05:25:35;;;;;;;4.90;2.10;;;12.20;91.00;;;;;;5035791;28;20281;-88
2021/10/06 05:28:01;;;;;;;4.03;2.10;;;12.30;90.80;;;;;;5048205;28;20189;-88
2021/10/06 05:30:27;;;;;;;3.00;2.17;;;12.30;90.00;;;;;;5048422;28;20666;-88
2021/10/06 05:32:52;;;;;;;5.37;2.00;;;12.20;90.70;;;;;;5045559;28;20204;-88
2021/10/06 05:35:18;;;;;;;4.93;2.13;;;12.30;90.00;;;;;;5030656;28;20228;-88
2021/10/06 05:37:45;;;;;;;4.07;2.37;;;12.20;90.30;;;;;;5048352;28;20187;-88
2021/10/06 05:40:12;;;;;;;3.23;1.87;;;12.20;90.70;;;;;;5029029;28;20594;-88
2021/10/06 05:42:37;;;;;;;3.33;2.20;;;12.10;90.80;;;;;;5046485;28;20219;-88
2021/10/06 05:45:04;;;;;;;3.87;2.20;;;12.10;91.00;;;;;;5051636;28;20212;-89
2021/10/06 05:47:29;;;;;;;5.43;2.37;;;12.10;90.70;;;;;;5032609;28;20193;-89
2021/10/06 05:49:55;;;;;;;5.10;2.10;;;12.10;90.60;;;;;;5047757;28;20549;-89
2021/10/06 05:52:24;;;;;;;3.93;2.00;;;12.00;91.50;;;;;;5045054;28;20298;-89
2021/10/06 05:54:49;;;;;;;4.17;2.20;;;11.90;92.10;;;;;;5033387;28;20287;-90
2021/10/06 05:57:15;;;;;;;4.57;2.20;;;12.00;91.40;;;;;;5053355;28;21027;-89
2021/10/06 05:59:41;;;;;;;4.80;2.10;;;12.00;91.80;;;;;;5049840;28;20232;-89
2021/10/06 06:02:06;;;;;;;2.93;2.00;;;12.00;91.10;;;;;;5035774;28;20221;-89
2021/10/06 06:04:34;;;;;;;5.33;2.10;;;12.00;90.90;;;;;;5054081;28;20191;-90
2021/10/06 06:07:01;;;;;;;5.47;2.60;;;11.90;90.70;;;;;;5054080;28;20222;-89
2021/10/06 06:09:27;;;;;;;3.40;1.80;;;11.90;90.30;;;;;;5048451;28;20192;-90
2021/10/06 06:11:55;;;;;;;5.00;2.20;;;12.00;89.70;;;;;;5055508;28;20220;-90
2021/10/06 06:14:21;;;;;;;4.63;2.20;;;12.00;90.20;;;;;;5057155;28;20691;-91
2021/10/06 06:16:47;;;;;;;3.13;2.00;;;12.00;89.70;;;;;;5028841;28;20192;-91
2021/10/06 06:19:13;;;;;;;4.27;2.23;;;12.00;90.20;;;;;;5061005;28;20189;-91
2021/10/06 06:21:40;;;;;;;3.87;2.43;;;11.90;90.00;;;;;;5043950;28;20700;-91
2021/10/06 06:24:06;;;;;;;3.23;2.13;;;12.00;90.20;;;;;;5043963;28;20207;-90
2021/10/06 06:26:32;;;;;;;5.10;2.30;;;11.90;89.90;;;;;;5054951;28;20556;-89
2021/10/06 06:28:57;;;;;;;3.97;2.30;;;11.90;90.60;;;;;;5036931;28;20196;-90
2021/10/06 06:31:23;;;;;;;6.47;2.30;;;11.90;89.90;;;;;;5035072;28;20220;-88
2021/10/06 06:33:49;;;;;;;2.70;2.20;;;12.00;89.50;;;;;;5043727;28;20189;-88
2021/10/06 06:36:14;;;;;;;4.93;2.20;;;12.00;89.80;;;;;;5052438;28;20222;-86
2021/10/06 06:38:40;;;;;;;6.20;2.33;;;12.00;90.20;;;;;;5048136;28;20198;-90
2021/10/06 06:41:06;;;;;;;3.83;2.43;;;12.10;89.50;;;;;;5055956;28;20674;-89
2021/10/06 06:43:31;;;;;;;3.60;2.60;;;12.00;90.40;;;;;;5056431;28;20193;-88
2021/10/06 06:45:57;;;;;;;3.00;2.10;;;12.00;90.30;;;;;;5066778;28;20204;-87
2021/10/06 06:48:23;;;;;;;3.03;2.00;;;12.00;89.70;;;;;;5068412;28;20205;-89
2021/10/06 06:50:53;;;;;;;3.93;2.10;;;12.10;89.00;;;;;;5046353;28;20233;-90
2021/10/06 06:53:29;;;;;;;2.47;2.00;;;12.10;88.80;;;;;;5052666;28;20242;-88
2021/10/06 06:55:56;;;;;;;6.23;2.60;;;12.10;88.30;;;;;;5057025;28;20287;-88
2021/10/06 06:58:22;;;;;;;3.10;2.20;;;12.00;88.20;;;;;;5066337;28;20616;-86
2021/10/06 07:00:49;;;;;;;3.17;2.00;;;12.00;88.60;;;;;;5049916;28;20260;-90
2021/10/06 07:03:16;;;;;;;4.70;1.97;;;12.00;89.10;;;;;;5029521;28;20603;-91
2021/10/06 07:05:42;;;;;;;4.57;2.07;;;12.00;88.00;;;;;;5057499;28;20192;-90
2021/10/06 07:08:08;;;;;;;5.60;2.43;;;12.00;88.00;;;;;;5052991;28;20281;-91
2021/10/06 07:10:34;;;;;;;5.50;2.47;;;11.90;88.20;;;;;;5066160;28;20202;-90
2021/10/06 07:13:00;;;;;;;3.23;1.90;;;12.00;88.20;;;;;;5050001;28;20257;-90
2021/10/06 07:15:26;;;;;;;5.17;2.27;;;12.00;87.30;;;;;;5029036;28;20248;-91
2021/10/06 07:17:52;;;;;;;3.03;2.10;;;12.10;87.80;;;;;;5048709;28;20196;-90
2021/10/06 07:20:18;;;;;;;4.37;2.37;;;12.00;87.90;;;;;;5041435;28;20224;-91
2021/10/06 07:22:47;;;;;;;8.40;2.30;;;12.00;87.90;;;;;;5055013;28;20210;-91
2021/10/06 07:25:14;;;;;;;5.13;2.33;;;12.10;87.30;;;;;;5034677;28;20307;-91
2021/10/06 07:27:39;;;;;;;3.20;2.23;;;11.90;87.70;;;;;;5048429;28;20761;-90
2021/10/06 07:30:06;;;;;;;5.53;2.37;;;11.90;88.40;;;;;;5053533;28;20214;-89
2021/10/06 07:32:31;;;;;;;3.17;2.10;;;11.90;87.90;;;;;;5050409;28;20234;-91
2021/10/06 07:34:58;;;;;;;3.37;2.00;;;11.80;87.80;;;;;;5050168;28;20199;-90
2021/10/06 07:37:24;;;;;;;4.70;2.30;;;11.80;88.40;;;;;;5049608;28;20267;-90
2021/10/06 07:39:49;;;;;;;4.60;2.03;;;11.80;87.20;;;;;;5050458;28;20219;-90
2021/10/06 07:42:15;;;;;;;5.13;2.30;;;11.80;88.10;;;;;;5060788;28;20224;-90
2021/10/06 07:44:42;;;;;;;2.73;1.80;;;11.80;88.10;;;;;;5065733;28;20833;-90
2021/10/06 07:47:08;;;;;;;4.23;2.10;;;11.90;88.50;;;;;;5040979;28;20189;-89
2021/10/06 07:49:34;;;;;;;4.57;2.27;;;11.90;88.10;;;;;;5062876;28;20189;-90
2021/10/06 07:52:00;;;;;;;2.70;2.17;;;11.90;88.70;;;;;;5051047;28;20284;-90
2021/10/06 07:54:25;;;;;;;3.87;2.07;;;11.90;88.70;;;;;;5057443;28;20253;-90
2021/10/06 07:56:51;;;;;;;3.67;2.00;;;11.90;89.10;;;;;;5053388;28;20196;-89
2021/10/06 07:59:17;;;;;;;4.73;2.07;;;12.10;88.10;;;;;;5055028;28;20198;-90
2021/10/06 08:01:43;;;;;;;6.00;2.30;;;12.20;86.80;;;;;;5062046;28;20221;-90
2021/10/06 08:04:09;;;;;;;3.93;2.20;;;12.10;87.10;;;;;;5072186;28;20184;-90
2021/10/06 08:06:35;;;;;;;6.43;2.53;;;12.00;87.00;;;;;;5073791;28;20179;-89
2021/10/06 08:09:01;;;;;;;5.03;2.30;;;12.00;87.80;;;;;;5069181;28;20201;-90
2021/10/06 08:11:27;;;;;;;3.93;2.03;;;12.00;87.90;;;;;;5050614;28;20209;-89
2021/10/06 08:13:53;;;;;;;3.40;2.30;;;12.00;87.00;;;;;;5061960;28;20200;-89
2021/10/06 08:16:19;;;;;;;3.00;2.10;;;11.90;87.90;;;;;;5052569;28;20711;-90
2021/10/06 08:18:44;;;;;;;2.60;1.90;;;11.90;87.50;;;;;;5038046;28;20540;-90
2021/10/06 08:21:10;;;;;;;5.07;2.03;;;11.90;87.60;;;;;;5056448;28;20251;-90
2021/10/06 08:23:36;;;;;;;6.97;2.10;;;12.00;86.10;;;;;;5053432;28;20195;-90
2021/10/06 08:26:02;;;;;;;5.90;2.60;;;12.00;87.50;;;;;;5053810;28;20190;-90
2021/10/06 08:28:28;;;;;;;5.10;2.47;;;12.10;87.00;;;;;;5038860;28;20192;-90
2021/10/06 08:30:54;;;;;;;4.77;2.40;;;12.10;86.90;;;;;;5042292;28;20241;-90
2021/10/06 08:33:20;;;;;;;6.97;2.20;;;12.20;86.70;;;;;;5062743;28;20197;-90
2021/10/06 08:35:45;;;;;;;3.83;2.63;;;12.20;86.60;;;;;;5040235;28;20209;-90
2021/10/06 08:38:11;;;;;;;4.90;2.47;;;12.20;86.60;;;;;;5056372;28;20198;-90
2021/10/06 08:40:38;;;;;;;6.07;2.37;;;12.20;86.90;;;;;;5050978;28;20264;-90
2021/10/06 08:43:06;;;;;;;6.63;2.50;;;12.20;85.90;;;;;;5036096;28;20285;-90
2021/10/06 08:45:32;;;;;;;8.37;2.33;;;12.20;86.80;;;;;;5055431;28;20212;-90
2021/10/06 08:48:01;;;;;;;6.27;2.73;;;12.20;86.40;;;;;;5057760;28;20625;-90
2021/10/06 08:50:28;;;;;;;7.00;2.40;;;12.30;86.80;;;;;;5058779;28;20198;-91
2021/10/06 08:52:53;;;;;;;3.33;2.17;;;12.50;86.70;;;;;;5069389;28;20203;-91
2021/10/06 08:55:30;;;;;;;5.50;2.70;;;12.60;86.40;;;;;;5065601;28;20214;-91
2021/10/06 08:58:01;;;;;;;6.13;2.50;;;12.60;85.30;;;;;;5051346;28;20198;-90
2021/10/06 09:00:28;;;;;;;4.67;2.70;;;12.60;86.20;;;;;;5056106;28;20568;-91
2021/10/06 09:02:54;;;;;;;5.50;2.90;;;12.60;85.90;;;;;;5045902;28;20241;-91
2021/10/06 09:05:26;;;;;;;3.90;2.40;;;12.80;85.50;;;;;;5035874;28;20527;-91
2021/10/06 09:07:57;;;;;;;3.13;2.40;;;12.70;84.80;;;;;;5035994;28;20655;-90
2021/10/06 09:10:24;;;;;;;4.33;2.03;;;12.70;85.70;;;;;;5046688;28;20288;-90
2021/10/06 09:12:58;;;;;;;5.17;2.50;;;12.70;84.60;;;;;;5057958;28;20213;-91
2021/10/06 09:15:25;;;;;;;4.13;2.30;;;13.00;84.60;;;;;;5061155;28;20205;-90
2021/10/06 09:17:57;;;;;;;5.30;2.77;;;13.00;84.40;;;;;;5058422;28;20202;-91
2021/10/06 09:20:36;;;;;;;4.13;2.47;;;13.10;85.10;;;;;;5057326;28;20203;-90
2021/10/06 09:23:08;;;;;;;3.17;2.10;;;13.10;83.90;;;;;;5066411;28;20209;-91
2021/10/06 09:25:59;;;;;;;4.47;2.20;;;13.00;85.20;;;;;;5073145;28;20202;-90
2021/10/06 09:28:36;;;;;;;5.17;2.30;;;13.20;81.80;;;;;;5080659;28;20202;-90
2021/10/06 09:31:03;;;;;;;5.67;2.40;;;13.40;83.10;;;;;;5055200;28;20256;-90
2021/10/06 09:33:51;;;;;;;3.73;2.10;;;13.30;82.90;;;;;;5035746;28;20931;-91
2021/10/06 09:36:29;;;;;;;4.10;2.07;;;13.60;80.50;;;;;;5050643;28;20267;-91
2021/10/06 09:38:59;;;;;;;2.77;2.10;;;13.80;80.00;;;;;;5053258;28;20196;-90
2021/10/06 09:41:41;;;;;;;3.67;2.50;;;13.90;79.90;;;;;;5054566;28;20302;-91
2021/10/06 09:44:08;;;;;;;4.67;2.40;;;13.80;79.30;;;;;;5064708;28;20183;-90
2021/10/06 09:46:35;;;;;;;3.27;2.30;;;14.20;80.20;;;;;;5065257;28;20204;-90
2021/10/06 09:49:01;;;;;;;3.73;2.00;;;14.60;77.50;;;;;;5048217;28;20219;-91
2021/10/06 09:51:26;;;;;;;5.87;2.27;;;14.60;77.20;;;;;;5057048;28;20696;-89
2021/10/06 09:53:54;;;;;;;3.07;2.00;;;14.40;76.90;;;;;;5039964;28;20655;-89
2021/10/06 09:56:20;;;;;;;4.10;2.17;;;14.30;78.40;;;;;;5043797;28;20283;-88
2021/10/06 09:58:58;;;;;;;2.67;1.90;;;14.00;77.00;;;;;;5066469;28;20218;-88
2021/10/06 10:01:24;;;;;;;4.20;2.20;;;13.80;77.00;;;;;;5062974;28;20225;-89
2021/10/06 10:03:51;;;;;;;3.33;2.10;;;13.70;79.10;;;;;;5056185;28;20190;-89
2021/10/06 10:06:17;;;;;;;4.37;2.03;;;13.70;80.30;;;;;;5034958;28;20188;-88
2021/10/06 10:08:43;;;;;;;9.03;2.07;;;13.50;78.90;;;;;;5055398;28;20195;-89
2021/10/06 10:11:09;;;;;;;3.50;1.73;;;13.50;79.40;;;;;;5035245;28;20219;-88
2021/10/06 10:13:35;;;;;;;3.50;2.07;;;13.80;78.30;;;;;;5054408;28;20213;-89
2021/10/06 10:16:01;;;;;;;5.07;1.80;;;14.10;75.40;;;;;;5056395;28;20281;-88
2021/10/06 10:18:27;;;;;;;3.60;1.90;;;14.20;77.10;;;;;;5037774;28;20246;-90
2021/10/06 10:20:53;;;;;;;2.43;1.87;;;14.60;74.80;;;;;;5056112;28;20216;-88
2021/10/06 10:23:24;;;;;;;6.37;2.33;;;14.90;72.70;;;;;;5054352;28;20196;-88
2021/10/06 10:25:50;;;;;;;4.07;2.20;;;15.20;71.60;;;;;;5056358;28;20182;-88
2021/10/06 10:28:20;;;;;;;5.03;2.20;;;15.30;70.50;;;;;;5052189;28;20204;-88
2021/10/06 10:30:55;;;;;;;4.97;1.80;;;15.60;70.60;;;;;;5049971;28;20703;-88
2021/10/06 10:33:43;;;;;;;5.93;2.10;;;15.40;66.40;;;;;;5055965;28;20692;-88
2021/10/06 10:36:32;;;;;;;5.13;1.80;;;15.40;67.20;;;;;;5058097;28;20285;-87
2021/10/06 10:38:58;;;;;;;4.87;2.20;;;15.50;67.90;;;;;;5053905;28;20237;-89
2021/10/06 10:41:44;;;;;;;3.93;2.10;;;15.80;70.00;;;;;;5040381;28;20774;-88
2021/10/06 10:44:10;;;;;;;4.27;2.20;;;15.80;66.30;;;;;;5063271;28;20188;-88
2021/10/06 10:46:59;;;;;;;2.33;1.90;;;15.60;66.10;;;;;;5063820;28;20180;-88
2021/10/06 10:49:25;;;;;;;4.77;2.03;;;15.80;67.90;;;;;;5052941;28;20625;-87
2021/10/06 10:51:56;;;;;;;2.90;1.77;;;16.20;67.00;;;;;;5051083;28;20234;-85
2021/10/06 10:54:31;;;;;;;5.00;2.20;;;16.40;66.80;;;;;;5052512;28;20671;-87
2021/10/06 10:57:03;;;;;;;2.90;2.03;;;16.20;64.30;;;;;;5052236;28;20184;-87
2021/10/06 10:59:43;;;;;;;5.07;1.87;;;15.70;63.90;;;;;;5049537;28;20690;-87
2021/10/06 11:02:19;;;;;;;4.23;2.40;;;15.20;67.30;;;;;;5033439;28;20232;-85
2021/10/06 11:04:57;;;;;;;4.60;2.33;;;15.10;68.40;;;;;;5061586;28;20653;-88
2021/10/06 11:07:23;;;;;;;3.50;1.90;;;15.10;70.10;;;;;;5043335;28;20180;-87
2021/10/06 11:09:59;;;;;;;4.03;2.43;;;14.80;67.30;;;;;;5054025;28;20194;-87
2021/10/06 11:12:25;;;;;;;4.77;1.83;;;14.70;68.20;;;;;;5057563;28;20225;-87
2021/10/06 11:15:15;;;;;;;5.37;2.70;;;14.70;68.80;;;;;;5058342;28;20191;-88
2021/10/06 11:18:15;;;;;;;3.07;1.93;;;14.80;69.60;;;;;;5060784;28;20242;-89
2021/10/06 11:20:58;;;;;;;4.03;2.13;;;14.80;72.10;;;;;;5055488;28;20226;-90
2021/10/06 11:23:30;;;;;;;6.63;2.20;;;14.60;72.00;;;;;;5043271;28;20199;-90
2021/10/06 11:26:17;;;;;;;5.87;1.90;;;14.50;72.50;;;;;;5061712;28;20217;-90
2021/10/06 11:28:49;;;;;;;4.83;2.00;;;14.50;72.30;;;;;;5064060;28;20631;-88
2021/10/06 11:31:20;;;;;;;2.87;2.10;;;14.60;74.60;;;;;;5057251;28;20261;-88
2021/10/06 11:33:46;;;;;;;4.43;2.20;;;14.80;73.50;;;;;;5038618;28;20201;-88
2021/10/06 11:36:17;;;;;;;4.83;2.33;;;14.90;71.80;;;;;;5064452;28;20187;-88
2021/10/06 11:38:49;;;;;;;2.97;2.07;;;15.10;70.80;;;;;;5063583;28;20187;-88
2021/10/06 11:41:16;;;;;;;2.97;2.23;;;15.30;70.00;;;;;;5056594;28;20215;-88
2021/10/06 11:43:48;;;;;;;7.60;2.40;;;15.10;69.60;;;;;;5058728;28;20216;-88
2021/10/06 11:46:16;;;;;;;6.83;2.10;;;15.00;70.70;;;;;;5063209;28;20183;-88
2021/10/06 11:48:41;;;;;;;5.40;2.13;;;14.80;71.20;;;;;;5044469;28;20269;-88
2021/10/06 11:51:07;;;;;;;3.37;2.03;;;14.70;70.60;;;;;;5049115;28;20251;-88
2021/10/06 11:53:41;;;;;;;4.30;2.00;;;14.70;71.10;;;;;;5054704;28;20231;-88
2021/10/06 11:56:07;;;;;;;5.73;2.07;;;14.60;71.80;;;;;;5038574;28;20212;-88
2021/10/06 11:58:38;;;;;;;4.03;1.90;;;14.60;74.50;;;;;;5053649;28;20186;-89
2021/10/06 12:01:11;;;;;;;3.37;1.83;;;14.80;74.10;;;;;;5053924;28;20216;-89
2021/10/06 12:03:40;;;;;;;3.50;2.00;;;14.60;72.30;;;;;;5065019;28;20537;-89
2021/10/06 12:06:09;;;;;;;4.13;2.20;;;14.50;74.50;;;;;;5063169;28;20192;-89
2021/10/06 12:08:36;;;;;;;5.27;2.50;;;14.60;76.30;;;;;;5043463;28;20213;-88
2021/10/06 12:11:04;;;;;;;4.73;2.23;;;14.40;77.20;;;;;;5055701;28;20209;-89
2021/10/06 12:13:30;;;;;;;5.47;2.27;;;14.30;75.60;;;;;;5058088;28;20647;-89
2021/10/06 12:15:56;;;;;;;4.03;2.10;;;14.30;77.10;;;;;;5058139;28;20197;-89
2021/10/06 12:18:22;;;;;;;4.03;1.90;;;14.00;77.20;;;;;;5057009;28;20223;-89
2021/10/06 12:20:47;;;;;;;4.87;2.07;;;14.20;75.80;;;;;;5066636;28;20230;-87
2021/10/06 12:23:23;;;;;;;2.57;1.87;;;14.40;73.50;;;;;;5058843;28;20633;-88
2021/10/06 12:25:56;;;;;;;2.43;1.83;;;14.90;73.10;;;;;;5043051;28;20201;-88
2021/10/06 12:28:22;;;;;;;4.20;1.97;;;15.10;70.80;;;;;;5064482;28;20762;-88
2021/10/06 12:30:54;;;;;;;3.60;2.43;;;15.10;71.40;;;;;;5057043;28;20207;-88
2021/10/06 12:33:25;;;;;;;3.90;1.90;;;15.10;68.80;;;;;;5052455;28;20672;-88
2021/10/06 12:35:54;;;;;;;5.20;1.90;;;15.40;68.70;;;;;;5050897;28;20199;-89
2021/10/06 12:38:21;;;;;;;3.63;1.90;;;16.10;65.80;;;;;;5063541;28;20194;-88
2021/10/06 12:40:54;;;;;;;2.80;2.10;;;16.20;66.80;;;;;;5051213;28;20243;-89
2021/10/06 12:43:22;;;;;;;3.03;2.10;;;16.30;67.30;;;;;;5063180;28;20200;-89
2021/10/06 12:46:09;;;;;;;3.97;2.13;;;16.20;66.60;;;;;;5049941;28;20626;-89
2021/10/06 12:48:41;;;;;;;3.23;1.97;;;15.90;68.10;;;;;;5050545;28;20188;-88
2021/10/06 12:51:10;;;;;;;4.47;2.40;;;15.60;68.80;;;;;;5053239;28;20204;-89